Terminal Aerodrome Forecast
Issued by NWS Sterling, VA

Current Version | Previous Version | Graphics & Text | Print | Product List | Glossary On
Versions: 1 2 3 4 5 6 7 8 9 10 11 12 13
000
FTUS41 KLWX 211138
TAFMRB
TAF
KMRB 211138Z 2112/2212 19004KT 5SM -SHRA OVC050
     FM211500 21005KT 3SM SHRA OVC045
     FM211700 26007KT P6SM -SHRA OVC040
     FM212100 28007KT P6SM BKN045
     FM212300 29006KT P6SM SCT050
     FM220200 29005KT P6SM FEW250=

USA.gov is the U.S. government's official web portal to all federal, state and local government web resources and services.